createdAt,value
2022-08-19T00:01:28.575Z,8.13
2022-08-19T00:03:57.300Z,8.77
2022-08-19T00:06:23.903Z,8.30
2022-08-19T00:08:52.223Z,10.10
2022-08-19T00:11:25.815Z,9.52
2022-08-19T00:13:53.186Z,10.52
2022-08-19T00:16:26.166Z,9.63
2022-08-19T00:18:54.783Z,9.70
2022-08-19T00:21:21.522Z,9.82
2022-08-19T00:23:48.642Z,10.55
2022-08-19T00:26:15.620Z,9.00
2022-08-19T00:28:42.311Z,9.30
2022-08-19T00:31:10.193Z,9.75
2022-08-19T00:33:37.179Z,10.70
2022-08-19T00:36:07.262Z,10.50
2022-08-19T00:38:37.505Z,10.18
2022-08-19T00:41:07.349Z,9.38
2022-08-19T00:43:34.097Z,9.05
2022-08-19T00:46:02.282Z,9.18
2022-08-19T00:48:28.993Z,8.18
2022-08-19T00:50:56.421Z,9.30
2022-08-19T00:53:27.277Z,9.18
2022-08-19T00:55:55.884Z,9.35
2022-08-19T00:58:28.650Z,8.75
2022-08-19T01:00:55.241Z,9.43
2022-08-19T01:03:22.687Z,9.43
2022-08-19T01:05:51.472Z,9.38
2022-08-19T01:08:19.860Z,9.32
2022-08-19T01:10:54.063Z,9.85
2022-08-19T01:13:24.407Z,10.23
2022-08-19T01:15:58.311Z,9.60
2022-08-19T01:18:25.942Z,10.05
2022-08-19T01:20:55.168Z,9.70
2022-08-19T01:23:21.729Z,9.95
2022-08-19T01:25:52.060Z,9.63
2022-08-19T01:28:33.981Z,10.38
2022-08-19T01:31:01.014Z,9.75
2022-08-19T01:33:34.498Z,8.75
2022-08-19T01:36:11.667Z,9.55
2022-08-19T01:38:44.466Z,10.52
2022-08-19T01:41:12.812Z,10.30
2022-08-19T01:43:39.574Z,11.35
2022-08-19T01:46:26.186Z,12.13
2022-08-19T01:48:52.867Z,10.15
2022-08-19T01:51:19.418Z,10.60
2022-08-19T01:53:50.502Z,10.60
2022-08-19T01:56:18.974Z,10.93
2022-08-19T01:58:54.195Z,12.00
2022-08-19T02:01:21.007Z,11.63
2022-08-19T02:03:47.600Z,10.63
2022-08-19T02:06:14.632Z,10.95
2022-08-19T02:08:41.390Z,12.05
2022-08-19T02:11:08.298Z,10.63
2022-08-19T02:13:35.451Z,11.57
2022-08-19T02:16:02.043Z,11.65
2022-08-19T02:18:31.094Z,11.75
2022-08-19T02:20:57.696Z,12.32
2022-08-19T02:23:24.268Z,12.18
2022-08-19T02:25:52.443Z,10.82
2022-08-19T02:28:19.260Z,12.00
2022-08-19T02:30:47.348Z,13.15
2022-08-19T02:33:13.970Z,14.18
2022-08-19T02:35:47.591Z,12.98
2022-08-19T02:38:27.151Z,13.98
2022-08-19T02:40:56.934Z,12.98
2022-08-19T02:43:24.366Z,12.95
2022-08-19T02:45:52.196Z,11.93
2022-08-19T02:48:21.798Z,10.80
2022-08-19T02:50:57.361Z,11.88
2022-08-19T02:53:26.983Z,12.20
2022-08-19T02:55:54.019Z,12.32
2022-08-19T02:58:22.307Z,13.32
2022-08-19T03:00:52.243Z,12.35
2022-08-19T03:03:19.801Z,12.18
2022-08-19T03:05:56.074Z,12.82
2022-08-19T03:08:25.004Z,10.75
2022-08-19T03:10:52.979Z,11.95
2022-08-19T03:13:19.540Z,12.13
2022-08-19T03:15:48.311Z,13.68
2022-08-19T03:18:16.190Z,12.60
2022-08-19T03:20:51.194Z,11.88
2022-08-19T03:23:17.932Z,12.10
2022-08-19T03:26:03.179Z,13.43
2022-08-19T03:28:38.195Z,11.32
2022-08-19T03:31:41.842Z,11.00
2022-08-19T03:33:56.192Z,11.30
2022-08-19T03:36:25.955Z,11.48
2022-08-19T03:39:00.063Z,11.77
2022-08-19T03:41:44.499Z,11.73
2022-08-19T03:44:17.658Z,12.93
2022-08-19T03:46:49.994Z,12.35
2022-08-19T03:49:18.159Z,11.60
2022-08-19T03:51:47.020Z,12.68
2022-08-19T03:54:15.911Z,11.93
2022-08-19T03:56:44.605Z,10.98
2022-08-19T03:59:14.377Z,12.43
2022-08-19T04:01:41.906Z,13.20
2022-08-19T04:04:09.405Z,11.45
2022-08-19T04:06:39.849Z,10.65
2022-08-19T04:09:10.279Z,11.95
2022-08-19T04:11:44.543Z,12.32
2022-08-19T04:14:19.199Z,13.00
2022-08-19T04:16:47.305Z,11.95
2022-08-19T04:19:15.100Z,11.85
2022-08-19T04:21:45.981Z,12.85
2022-08-19T04:24:13.958Z,13.23
2022-08-19T04:26:41.023Z,10.98
2022-08-19T04:29:13.320Z,11.65
2022-08-19T04:31:41.722Z,12.60
2022-08-19T04:34:13.549Z,12.32
2022-08-19T04:36:42.326Z,12.07
2022-08-19T04:39:12.127Z,12.93
2022-08-19T04:41:57.213Z,13.95
2022-08-19T04:44:24.111Z,13.70
2022-08-19T04:46:52.271Z,13.80
2022-08-19T04:49:23.564Z,13.18
2022-08-19T04:51:53.267Z,13.73
2022-08-19T04:54:37.701Z,12.82
2022-08-19T04:57:08.404Z,15.02
2022-08-19T04:59:36.118Z,13.02
2022-08-19T05:02:04.074Z,14.15
2022-08-19T05:04:33.626Z,15.02
2022-08-19T05:07:01.732Z,15.88
2022-08-19T05:09:33.046Z,15.20
2022-08-19T05:12:16.519Z,13.98
2022-08-19T05:14:43.327Z,13.43
2022-08-19T05:17:27.023Z,13.32
2022-08-19T05:20:13.939Z,14.80
2022-08-19T05:22:41.271Z,14.68
2022-08-19T05:25:14.658Z,13.93
2022-08-19T05:27:42.584Z,15.88
2022-08-19T05:30:10.191Z,14.25
2022-08-19T05:32:36.791Z,14.52
2022-08-19T05:35:04.741Z,13.27
2022-08-19T05:37:31.362Z,14.27
2022-08-19T05:39:58.038Z,17.20
2022-08-19T05:42:24.651Z,16.92
2022-08-19T05:44:52.310Z,16.05
2022-08-19T05:47:22.756Z,15.10
2022-08-19T05:49:51.244Z,14.48
2022-08-19T05:52:18.883Z,16.83
2022-08-19T05:54:48.606Z,14.88
2022-08-19T05:57:19.319Z,15.48
2022-08-19T05:59:57.657Z,17.88
2022-08-19T06:02:26.764Z,15.73
2022-08-19T06:04:53.376Z,16.25
2022-08-19T06:07:20.348Z,15.70
2022-08-19T06:09:59.644Z,18.08
2022-08-19T06:12:33.844Z,15.90
2022-08-19T06:15:02.316Z,17.50
2022-08-19T06:17:32.682Z,16.42
2022-08-19T06:19:59.952Z,18.55
2022-08-19T06:22:27.777Z,15.65
2022-08-19T06:24:54.993Z,16.80
2022-08-19T06:27:22.603Z,15.63
2022-08-19T06:29:49.191Z,17.83
2022-08-19T06:32:17.409Z,15.20
2022-08-19T06:34:44.043Z,15.15
2022-08-19T06:37:11.902Z,15.27
2022-08-19T06:39:40.693Z,16.17
2022-08-19T06:42:08.038Z,16.58
2022-08-19T06:44:42.895Z,16.35
2022-08-19T06:47:14.879Z,14.85
2022-08-19T06:49:50.070Z,15.57
2022-08-19T06:52:16.938Z,15.45
2022-08-19T06:54:55.503Z,14.77
2022-08-19T06:57:24.019Z,15.68
2022-08-19T06:59:50.867Z,17.13
2022-08-19T07:04:44.960Z,15.52
2022-08-19T07:07:20.072Z,14.73
2022-08-19T07:09:51.602Z,13.27
2022-08-19T07:12:25.357Z,14.95
2022-08-19T07:14:53.627Z,13.65
2022-08-19T07:17:21.636Z,14.27
2022-08-19T07:19:48.540Z,14.80
2022-08-19T07:22:15.851Z,14.70
2022-08-19T07:24:51.501Z,15.73
2022-08-19T07:27:24.343Z,16.05
2022-08-19T07:29:56.209Z,14.43
2022-08-19T07:32:26.690Z,13.57
2022-08-19T07:34:53.460Z,13.77
2022-08-19T07:37:20.048Z,13.93
2022-08-19T07:39:46.721Z,14.00
2022-08-19T07:42:14.560Z,13.15
2022-08-19T07:44:42.043Z,11.88
2022-08-19T07:47:47.124Z,12.05
2022-08-19T07:49:55.529Z,13.70
2022-08-19T07:52:22.149Z,11.90
2022-08-19T07:54:49.148Z,11.32
2022-08-19T07:57:15.991Z,11.43
2022-08-19T07:59:42.614Z,11.20
2022-08-19T08:02:10.127Z,10.93
2022-08-19T08:04:55.528Z,12.18
2022-08-19T08:07:41.026Z,12.05
2022-08-19T08:10:21.171Z,11.88
2022-08-19T08:13:08.594Z,11.25
2022-08-19T08:15:39.848Z,11.07
2022-08-19T08:18:08.590Z,11.68
2022-08-19T08:20:35.916Z,10.88
2022-08-19T08:23:21.475Z,10.13
2022-08-19T08:25:49.361Z,11.90
2022-08-19T08:28:17.697Z,10.23
2022-08-19T08:30:46.641Z,10.95
2022-08-19T08:33:13.298Z,10.82
2022-08-19T08:35:43.106Z,11.95
2022-08-19T08:38:09.663Z,12.10
2022-08-19T08:40:51.494Z,11.32
2022-08-19T08:43:42.298Z,13.38
2022-08-19T08:46:35.893Z,12.48
2022-08-19T08:49:29.343Z,12.48
2022-08-19T08:52:08.092Z,12.25
2022-08-19T08:54:48.846Z,11.38
2022-08-19T08:57:50.535Z,10.30
2022-08-19T09:00:39.902Z,10.25
2022-08-19T09:03:20.151Z,12.70
2022-08-19T09:06:21.851Z,12.32
2022-08-19T09:09:31.862Z,12.55
2022-08-19T09:12:04.683Z,11.38
2022-08-19T09:14:51.974Z,11.55
2022-08-19T09:17:21.783Z,11.25
2022-08-19T09:20:11.389Z,13.15
2022-08-19T09:22:39.435Z,12.40
2022-08-19T09:25:08.610Z,13.65
2022-08-19T09:27:42.932Z,15.18
2022-08-19T09:30:14.977Z,14.77
2022-08-19T09:32:43.539Z,12.52
2022-08-19T09:35:11.048Z,14.15
2022-08-19T09:37:38.747Z,15.73
2022-08-19T09:40:08.077Z,15.23
2022-08-19T09:42:35.939Z,15.82
2022-08-19T09:45:05.207Z,18.02
2022-08-19T09:47:34.118Z,14.82
2022-08-19T09:50:00.678Z,16.80
2022-08-19T09:52:32.621Z,16.17
2022-08-19T09:54:59.971Z,17.42
2022-08-19T09:57:26.620Z,17.88
2022-08-19T09:59:54.370Z,14.98
2022-08-19T10:02:22.198Z,17.33
2022-08-19T10:05:07.963Z,18.00
2022-08-19T10:07:36.430Z,18.58
2022-08-19T10:10:07.146Z,19.25
2022-08-19T10:12:35.042Z,17.08
2022-08-19T10:15:02.390Z,18.90
2022-08-19T10:17:31.560Z,18.80
2022-08-19T10:20:00.713Z,18.25
2022-08-19T10:22:27.473Z,16.35
2022-08-19T10:24:54.469Z,17.42
2022-08-19T10:27:21.118Z,19.05
2022-08-19T10:29:48.711Z,17.33
2022-08-19T10:32:15.990Z,18.33
2022-08-19T10:34:48.700Z,18.77
2022-08-19T10:37:23.630Z,20.70
2022-08-19T10:39:50.634Z,21.88
2022-08-19T10:42:19.386Z,21.02
2022-08-19T10:44:47.531Z,19.38
2022-08-19T10:47:24.598Z,17.25
2022-08-19T10:50:12.667Z,21.95
2022-08-19T10:52:49.498Z,24.73
2022-08-19T10:55:38.322Z,22.33
2022-08-19T10:58:05.212Z,20.98
2022-08-19T11:00:32.391Z,25.08
2022-08-19T11:02:59.434Z,24.00
2022-08-19T11:05:26.063Z,23.33
2022-08-19T11:07:53.107Z,22.58
2022-08-19T11:10:21.834Z,21.52
2022-08-19T11:12:49.234Z,24.60
2022-08-19T11:15:16.038Z,23.92
2022-08-19T11:17:44.288Z,25.25
2022-08-19T11:20:13.635Z,23.65
2022-08-19T11:22:41.892Z,26.85
2022-08-19T11:25:11.307Z,24.52
2022-08-19T11:27:47.025Z,24.38
2022-08-19T11:30:14.755Z,25.38
2022-08-19T11:32:45.888Z,24.48
2022-08-19T11:35:15.347Z,25.25
2022-08-19T11:37:41.951Z,27.42
2022-08-19T11:40:09.411Z,24.20
2022-08-19T11:42:54.580Z,25.85
2022-08-19T11:45:21.453Z,22.98
2022-08-19T11:47:48.574Z,22.27
2022-08-19T11:50:17.085Z,23.30
2022-08-19T11:52:45.241Z,23.05
2022-08-19T11:55:13.433Z,22.77
2022-08-19T11:57:41.940Z,23.42
2022-08-19T12:00:10.257Z,21.13
2022-08-19T12:02:37.171Z,20.98
2022-08-19T12:05:04.969Z,21.50
2022-08-19T12:07:35.218Z,23.80
2022-08-19T12:10:01.937Z,21.55
2022-08-19T12:12:30.355Z,20.80
2022-08-19T12:14:59.075Z,19.27
2022-08-19T12:17:27.264Z,18.80
2022-08-19T12:19:54.727Z,19.90
2022-08-19T12:22:22.221Z,18.38
2022-08-19T12:24:51.063Z,17.73
2022-08-19T12:27:31.874Z,17.65
2022-08-19T12:30:05.955Z,16.10
2022-08-19T12:32:32.511Z,17.90
2022-08-19T12:34:59.059Z,16.35
2022-08-19T12:37:25.634Z,16.48
2022-08-19T12:39:52.250Z,16.05
2022-08-19T12:42:19.544Z,17.50
2022-08-19T12:44:46.117Z,16.23
2022-08-19T12:47:15.361Z,17.20
2022-08-19T12:49:54.093Z,16.38
2022-08-19T12:52:26.058Z,17.10
2022-08-19T12:54:55.218Z,18.55
2022-08-19T12:57:25.873Z,18.27
2022-08-19T13:00:01.319Z,16.35
2022-08-19T13:02:27.880Z,16.25
2022-08-19T13:04:54.705Z,16.13
2022-08-19T13:07:21.236Z,15.95
2022-08-19T13:09:47.778Z,17.42
2022-08-19T13:12:14.352Z,19.02
2022-08-19T13:14:41.361Z,20.67
2022-08-19T13:17:09.170Z,18.70
2022-08-19T13:19:37.898Z,19.52
2022-08-19T13:22:04.729Z,20.08
2022-08-19T13:24:37.752Z,17.98
2022-08-19T13:27:04.706Z,19.70
2022-08-19T13:29:49.856Z,20.38
2022-08-19T13:32:35.163Z,19.65
2022-08-19T13:35:03.313Z,19.88
2022-08-19T13:37:42.052Z,19.42
2022-08-19T13:40:13.641Z,20.38
2022-08-19T13:42:41.095Z,21.10
2022-08-19T13:45:08.769Z,21.33
2022-08-19T13:47:35.740Z,20.20
2022-08-19T13:50:05.655Z,22.15
2022-08-19T13:52:32.312Z,22.77
2022-08-19T13:54:58.963Z,22.20
2022-08-19T13:57:25.564Z,23.77
2022-08-19T13:59:52.150Z,22.85
2022-08-19T14:02:19.324Z,21.60
2022-08-19T14:04:45.864Z,21.92
2022-08-19T14:07:12.420Z,22.90
2022-08-19T14:09:38.962Z,22.90
2022-08-19T14:12:05.679Z,20.30
2022-08-19T14:14:32.617Z,23.20
2022-08-19T14:16:59.157Z,20.27
2022-08-19T14:19:25.707Z,20.10
2022-08-19T14:21:58.436Z,18.90
2022-08-19T14:24:25.389Z,17.70
2022-08-19T14:26:52.003Z,16.85
2022-08-19T14:29:18.537Z,16.10
2022-08-19T14:31:45.279Z,15.82
2022-08-19T14:34:13.539Z,17.58
2022-08-19T14:36:40.187Z,18.95
2022-08-19T14:39:06.719Z,16.25
2022-08-19T14:41:33.613Z,16.48
2022-08-19T14:44:01.190Z,17.25
2022-08-19T14:46:29.774Z,16.30
2022-08-19T14:48:57.034Z,16.17
2022-08-19T14:51:27.598Z,16.75
2022-08-19T14:53:54.655Z,18.27
2022-08-19T14:56:24.749Z,17.63
2022-08-19T14:58:52.627Z,17.30
2022-08-19T15:01:23.060Z,15.98
2022-08-19T15:03:53.494Z,18.85
2022-08-19T15:06:20.539Z,15.93
2022-08-19T15:08:47.071Z,14.65
2022-08-19T15:11:17.396Z,16.40
2022-08-19T15:13:45.523Z,18.80
2022-08-19T15:16:18.057Z,15.93
2022-08-19T15:18:46.057Z,15.35
2022-08-19T15:21:15.198Z,15.63
2022-08-19T15:23:41.798Z,14.77
2022-08-19T15:26:16.095Z,15.85
2022-08-19T15:28:42.951Z,15.18
2022-08-19T15:31:09.870Z,14.50
2022-08-19T15:33:52.106Z,13.65
2022-08-19T15:36:18.911Z,13.25
2022-08-19T15:38:46.432Z,15.77
2022-08-19T15:41:24.716Z,14.40
2022-08-19T15:44:00.563Z,14.30
2022-08-19T15:46:30.879Z,14.20
2022-08-19T15:48:59.837Z,13.85
2022-08-19T15:51:30.238Z,14.15
2022-08-19T15:53:57.667Z,14.15
2022-08-19T15:56:27.215Z,13.60
2022-08-19T15:59:13.023Z,13.07
2022-08-19T16:02:05.646Z,14.88
2022-08-19T16:04:55.609Z,14.70
2022-08-19T16:07:23.436Z,15.43
2022-08-19T16:09:50.127Z,15.63
2022-08-19T16:12:16.730Z,13.15
2022-08-19T16:14:43.277Z,12.93
2022-08-19T16:17:12.470Z,14.23
2022-08-19T16:19:40.351Z,13.02
2022-08-19T16:22:06.967Z,11.82
2022-08-19T16:24:33.675Z,12.23
2022-08-19T16:27:01.445Z,11.68
2022-08-19T16:29:34.819Z,12.45
2022-08-19T16:32:10.061Z,11.13
2022-08-19T16:34:38.091Z,12.18
2022-08-19T16:37:04.832Z,13.43
2022-08-19T16:39:31.643Z,12.50
2022-08-19T16:41:58.433Z,12.50
2022-08-19T16:44:27.397Z,11.68
2022-08-19T16:46:58.515Z,11.35
2022-08-19T16:49:54.473Z,11.25
2022-08-19T16:52:14.594Z,11.75
2022-08-19T16:54:43.617Z,11.48
2022-08-19T16:57:12.247Z,13.68
2022-08-19T16:59:48.534Z,12.68
2022-08-19T17:02:22.046Z,12.90
2022-08-19T17:04:57.252Z,12.52
2022-08-19T17:07:26.718Z,12.18
2022-08-19T17:09:53.419Z,12.77
2022-08-19T17:12:23.029Z,12.15
2022-08-19T17:14:56.996Z,12.40
2022-08-19T17:17:28.347Z,12.75
2022-08-19T17:19:55.598Z,12.85
2022-08-19T17:22:22.148Z,12.00
2022-08-19T17:24:48.745Z,12.27
2022-08-19T17:27:15.586Z,11.90
2022-08-19T17:29:46.767Z,13.13
2022-08-19T17:32:15.237Z,13.02
2022-08-19T17:34:41.770Z,12.40
2022-08-19T17:37:08.336Z,13.30
2022-08-19T17:39:37.177Z,12.40
2022-08-19T17:42:07.283Z,12.40
2022-08-19T17:44:36.453Z,12.48
2022-08-19T17:47:04.155Z,14.32
2022-08-19T17:49:33.396Z,14.07
2022-08-19T17:52:00.458Z,15.75
2022-08-19T17:54:28.665Z,14.27
2022-08-19T17:57:01.164Z,14.82
2022-08-19T17:59:28.500Z,13.80
2022-08-19T18:01:57.381Z,13.27
2022-08-19T18:04:25.590Z,13.93
2022-08-19T18:06:54.699Z,14.48
2022-08-19T18:09:24.699Z,14.10
2022-08-19T18:11:53.611Z,13.38
2022-08-19T18:14:32.067Z,13.15
2022-08-19T18:17:06.047Z,14.00
2022-08-19T18:19:40.993Z,13.85
2022-08-19T18:22:10.464Z,13.27
2022-08-19T18:24:41.807Z,14.32
2022-08-19T18:27:08.653Z,13.90
2022-08-19T18:29:37.934Z,14.40
2022-08-19T18:32:04.978Z,13.98
2022-08-19T18:34:31.521Z,13.15
2022-08-19T18:36:58.092Z,13.18
2022-08-19T18:39:44.145Z,13.95
2022-08-19T18:42:33.409Z,14.13
2022-08-19T18:45:18.855Z,12.95
2022-08-19T18:48:04.329Z,13.25
2022-08-19T18:50:30.890Z,13.25
2022-08-19T18:52:57.430Z,13.13
2022-08-19T18:55:25.403Z,13.90
2022-08-19T18:57:52.842Z,13.77
2022-08-19T19:00:20.894Z,13.18
2022-08-19T19:02:47.474Z,13.32
2022-08-19T19:05:15.011Z,13.02
2022-08-19T19:07:42.243Z,12.63
2022-08-19T19:10:11.741Z,12.73
2022-08-19T19:12:44.333Z,13.02
2022-08-19T19:15:11.967Z,12.23
2022-08-19T19:17:39.783Z,12.32
2022-08-19T19:20:06.645Z,13.85
2022-08-19T19:22:33.236Z,13.95
2022-08-19T19:24:59.807Z,13.65
2022-08-19T19:27:26.476Z,14.32
2022-08-19T19:29:53.365Z,13.65
2022-08-19T19:32:29.335Z,13.40
2022-08-19T19:34:56.001Z,14.95
2022-08-19T19:37:22.566Z,14.70
2022-08-19T19:39:49.178Z,15.95
2022-08-19T19:42:21.155Z,15.93
2022-08-19T19:44:50.180Z,16.73
2022-08-19T19:47:18.823Z,17.23
2022-08-19T19:50:10.649Z,16.23
2022-08-19T19:52:33.517Z,14.55
2022-08-19T19:55:01.230Z,15.32
2022-08-19T19:57:29.202Z,15.30
2022-08-19T19:59:56.083Z,15.88
2022-08-19T20:02:22.830Z,16.23
2022-08-19T20:04:50.374Z,15.77
2022-08-19T20:07:17.207Z,15.93
2022-08-19T20:09:59.326Z,16.35
2022-08-19T20:12:27.077Z,15.77
2022-08-19T20:14:53.650Z,15.35
2022-08-19T20:17:20.698Z,15.00
2022-08-19T20:19:47.980Z,17.33
2022-08-19T20:22:15.447Z,18.45
2022-08-19T20:24:42.470Z,18.73
2022-08-19T20:27:10.749Z,18.88
2022-08-19T20:29:41.459Z,17.55
2022-08-19T20:32:09.811Z,17.08
2022-08-19T20:34:37.066Z,17.92
2022-08-19T20:37:03.729Z,18.33
2022-08-19T20:39:30.275Z,19.10
2022-08-19T20:41:57.004Z,19.77
2022-08-19T20:44:25.159Z,18.73
2022-08-19T20:46:54.827Z,18.73
2022-08-19T20:49:27.069Z,18.83
2022-08-19T20:51:55.202Z,17.98
2022-08-19T20:54:21.800Z,18.85
2022-08-19T20:56:48.405Z,18.10
2022-08-19T20:59:15.251Z,17.67
2022-08-19T21:01:41.789Z,16.83
2022-08-19T21:04:08.347Z,17.27
2022-08-19T21:06:34.908Z,18.13
2022-08-19T21:09:01.464Z,20.08
2022-08-19T21:11:28.015Z,18.15
2022-08-19T21:13:54.625Z,17.42
2022-08-19T21:16:21.163Z,17.38
2022-08-19T21:18:48.266Z,16.27
2022-08-19T21:21:15.761Z,17.55
2022-08-19T21:23:43.999Z,17.80
2022-08-19T21:26:10.978Z,16.63
2022-08-19T21:28:37.529Z,17.85
2022-08-19T21:31:06.415Z,18.52
2022-08-19T21:33:33.358Z,16.83
2022-08-19T21:36:00.304Z,19.15
2022-08-19T21:38:27.290Z,17.90
2022-08-19T21:40:54.463Z,16.98
2022-08-19T21:43:21.249Z,18.25
2022-08-19T21:45:48.207Z,17.02
2022-08-19T21:48:15.136Z,18.08
2022-08-19T21:50:43.003Z,18.50
2022-08-19T21:53:14.009Z,17.52
2022-08-19T21:55:44.332Z,18.42
2022-08-19T21:58:12.254Z,19.40
2022-08-19T22:00:39.825Z,19.75
2022-08-19T22:03:06.445Z,19.48
2022-08-19T22:05:33.780Z,23.90
2022-08-19T22:08:01.816Z,23.10
2022-08-19T22:10:33.022Z,22.33
2022-08-19T22:12:59.951Z,22.02
2022-08-19T22:15:29.543Z,19.95
2022-08-19T22:17:58.392Z,20.38
2022-08-19T22:20:30.862Z,21.13
2022-08-19T22:23:00.864Z,19.08
2022-08-19T22:25:32.274Z,19.58
2022-08-19T22:28:01.856Z,20.10
2022-08-19T22:30:33.296Z,18.73
2022-08-19T22:33:03.748Z,18.20
2022-08-19T22:35:33.185Z,16.60
2022-08-19T22:38:00.683Z,17.02
2022-08-19T22:40:29.599Z,17.27
2022-08-19T22:43:07.504Z,18.35
2022-08-19T22:45:35.054Z,17.88
2022-08-19T22:48:02.383Z,18.65
2022-08-19T22:50:28.911Z,17.20
2022-08-19T22:53:00.362Z,17.85
2022-08-19T22:55:27.612Z,18.52
2022-08-19T22:57:55.523Z,18.35
2022-08-19T23:00:23.933Z,17.67
2022-08-19T23:02:52.223Z,17.65
2022-08-19T23:05:22.012Z,17.67
2022-08-19T23:07:53.519Z,17.83
2022-08-19T23:10:27.563Z,18.13
2022-08-19T23:12:56.646Z,20.17
2022-08-19T23:15:25.924Z,18.92
2022-08-19T23:17:54.878Z,18.45
2022-08-19T23:20:23.496Z,19.85
2022-08-19T23:22:50.820Z,18.85
2022-08-19T23:25:20.856Z,18.90
2022-08-19T23:28:06.511Z,17.65
2022-08-19T23:30:36.235Z,18.65
2022-08-19T23:33:12.328Z,18.00
2022-08-19T23:35:40.965Z,17.40
2022-08-19T23:38:09.756Z,19.42
2022-08-19T23:40:38.641Z,17.98
2022-08-19T23:43:08.246Z,19.20
2022-08-19T23:45:50.242Z,19.42
2022-08-19T23:48:18.451Z,19.10
2022-08-19T23:50:45.919Z,18.95
2022-08-19T23:53:13.416Z,19.10
2022-08-19T23:55:43.015Z,17.95
2022-08-19T23:58:10.482Z,17.60
